Seago Piraeus — OXVD2 — position and weather

sailwx.info

Track history (hours):
 
Tides and Currents Weather Stations Pressure Air Temp Water Temp Dewpoint Dewpoint Depression Visibility Wind Speed Wind Dir Waves Ship Positions

Seago Piraeus

Last reported at 2016-Aug-25 09:33 UTC. Time now 2016-Aug-27 16:54 UTC.
Position N 40°25' E 029°04'.

Length 294 m; draft 11.5 m.

Type: Ship (hazmat cat A). MMSI: 219117000.

Date/timePositionNaut miles runAvg speedWind from/ knotsBaromVisibWave heightAir tempDewpointWater temp
2016-Aug-25 09:33N 40°25' E 029°04'1 0.0
2016-Aug-24 13:29N 40°25' E 029°05'3 3.4
2016-Aug-24 12:27N 40°26' E 029°00'29 9.9
2016-Aug-24 09:33N 40°51' E 028°42'41 1.0
2016-Aug-22 17:28N 40°45' E 029°36'1111.3
2016-Aug-22 16:32N 40°44' E 029°22'6 6.6
2016-Aug-22 15:33N 40°46' E 029°14'2 1.7
2016-Aug-22 14:33N 40°46' E 029°12'1 0.7
2016-Aug-22 13:33N 40°46' E 029°12'0 0.5
2016-Aug-22 12:33N 40°46' E 029°12'0 0.3
2016-Aug-22 11:33N 40°46' E 029°12'2 1.9
2016-Aug-22 10:33N 40°46' E 029°10'1212.4
2016-Aug-22 09:33N 40°44' E 028°54'29911.1
2016-Aug-21 06:33N 37°37' E 023°53'1111.1
2016-Aug-21 05:33N 37°43' E 023°41'1212.1
2016-Aug-21 04:33N 37°54' E 023°37'3 3.0
2016-Aug-21 03:31N 37°57' E 023°35'0 0.0
2016-Aug-21 02:31N 37°57' E 023°35'0 0.0
2016-Aug-21 01:31N 37°57' E 023°35'0 0.0
2016-Aug-21 00:31N 37°57' E 023°35'0 0.0
2016-Aug-20 23:31N 37°57' E 023°35'0 0.0
2016-Aug-20 22:31N 37°57' E 023°35'0 0.0
2016-Aug-20 21:31N 37°57' E 023°35'0 0.0
2016-Aug-20 20:31N 37°57' E 023°35'0 0.0
2016-Aug-20 19:31N 37°57' E 023°35'0 0.0
2016-Aug-20 18:31N 37°57' E 023°35'0 0.0
2016-Aug-20 17:31N 37°57' E 023°35'3 2.9
2016-Aug-20 16:34N 37°55' E 023°36'1111.1
2016-Aug-20 15:33N 37°45' E 023°43'1211.9
2016-Aug-20 14:33N 37°33' E 023°44'1312.6
2016-Aug-20 13:34N 37°21' E 023°41'1313.1
2016-Aug-20 12:33N 37°08' E 023°37'31812.2
2016-Aug-19 10:26N 35°59' E 017°11'1314.2
2016-Aug-19 09:33N 35°58' E 016°56'5513.7
2016-Aug-19 05:32N 35°53' E 015°48'1413.7
2016-Aug-19 04:33N 35°52' E 015°31'2013.8
2016-Aug-19 03:04N 35°49' E 015°06'2613.5
2016-Aug-19 01:09N 35°48' E 014°34'2 3.0
2016-Aug-19 00:31N 35°49' E 014°32'0 0.0
2016-Aug-18 23:16N 35°49' E 014°32'0 0.0
2016-Aug-18 22:25N 35°49' E 014°32'0 0.0
2016-Aug-18 21:10N 35°49' E 014°32'0 0.0
2016-Aug-18 20:28N 35°49' E 014°32'0 0.0
2016-Aug-18 19:31N 35°49' E 014°32'0 0.0
2016-Aug-18 18:31N 35°49' E 014°32'0 0.0
2016-Aug-18 17:25N 35°49' E 014°32'0 0.0
2016-Aug-18 16:25N 35°49' E 014°32'0 0.0
2016-Aug-18 15:31N 35°49' E 014°32'0 0.0
2016-Aug-18 14:28N 35°49' E 014°32'0 0.0
2016-Aug-18 13:31N 35°49' E 014°32'1 1.2
2016-Aug-18 12:33N 35°49' E 014°34'9 9.2
2016-Aug-18 11:33N 35°46' E 014°23'1515.5
2016-Aug-18 10:33N 35°53' E 014°06'1615.7
2016-Aug-18 09:33N 36°02' E 013°50'1615.7
2016-Aug-18 08:33N 36°10' E 013°33'1515.3
2016-Aug-18 07:34N 36°18' E 013°17'1515.0
2016-Aug-18 06:34N 36°26' E 013°02'1515.0
2016-Aug-18 05:34N 36°35' E 012°46'1615.2
2016-Aug-18 04:32N 36°42' E 012°29'1515.3
2016-Aug-18 03:34N 36°50' E 012°14'4715.5
2016-Aug-18 00:32N 37°15' E 011°24'10414.8
2016-Aug-17 17:33N 37°23' E 009°14'31014.8
2016-Aug-16 20:32N 36°59' E 002°45'1614.9
2016-Aug-16 19:29N 36°56' E 002°26'14314.4
2016-Aug-16 09:33N 36°30' W 000°30'10414.9
2016-Aug-16 02:33N 36°12' W 002°37'1815.5
2016-Aug-16 01:24N 36°10' W 002°59'9815.8
2016-Aug-15 19:12N 36°01' W 005°00'914.5
2016-Aug-15 18:33N 35°60' W 005°12'1514.6
2016-Aug-15 17:33N 35°57' W 005°29'1715.3
2016-Aug-15 16:27N 35°54' W 005°50'  
Track history (hours):
 
Tides and Currents Weather Stations Pressure Air Temp Water Temp Dewpoint Dewpoint Depression Visibility Wind Speed Wind Dir Waves Ship Positions

Seago Piraeus

Last reported at 2016-Aug-25 09:33 UTC. Time now 2016-Aug-27 16:54 UTC.
Position N 40°25' E 029°04'.

Length 294 m; draft 11.5 m.

Type: Ship (hazmat cat A). MMSI: 219117000.

Date/timePositionNaut miles runAvg speedWind from/ knotsBaromVisibWave heightAir tempDewpointWater temp
2016-Aug-25 09:33N 40°25' E 029°04'1 0.0
2016-Aug-24 13:29N 40°25' E 029°05'3 3.4
2016-Aug-24 12:27N 40°26' E 029°00'29 9.9
2016-Aug-24 09:33N 40°51' E 028°42'41 1.0
2016-Aug-22 17:28N 40°45' E 029°36'1111.3
2016-Aug-22 16:32N 40°44' E 029°22'6 6.6
2016-Aug-22 15:33N 40°46' E 029°14'2 1.7
2016-Aug-22 14:33N 40°46' E 029°12'1 0.7
2016-Aug-22 13:33N 40°46' E 029°12'0 0.5
2016-Aug-22 12:33N 40°46' E 029°12'0 0.3
2016-Aug-22 11:33N 40°46' E 029°12'2 1.9
2016-Aug-22 10:33N 40°46' E 029°10'1212.4
2016-Aug-22 09:33N 40°44' E 028°54'29911.1
2016-Aug-21 06:33N 37°37' E 023°53'1111.1
2016-Aug-21 05:33N 37°43' E 023°41'1212.1
2016-Aug-21 04:33N 37°54' E 023°37'3 3.0
2016-Aug-21 03:31N 37°57' E 023°35'0 0.0
2016-Aug-21 02:31N 37°57' E 023°35'0 0.0
2016-Aug-21 01:31N 37°57' E 023°35'0 0.0
2016-Aug-21 00:31N 37°57' E 023°35'0 0.0
2016-Aug-20 23:31N 37°57' E 023°35'0 0.0
2016-Aug-20 22:31N 37°57' E 023°35'0 0.0
2016-Aug-20 21:31N 37°57' E 023°35'0 0.0
2016-Aug-20 20:31N 37°57' E 023°35'0 0.0
2016-Aug-20 19:31N 37°57' E 023°35'0 0.0
2016-Aug-20 18:31N 37°57' E 023°35'0 0.0
2016-Aug-20 17:31N 37°57' E 023°35'3 2.9
2016-Aug-20 16:34N 37°55' E 023°36'1111.1
2016-Aug-20 15:33N 37°45' E 023°43'1211.9
2016-Aug-20 14:33N 37°33' E 023°44'1312.6
2016-Aug-20 13:34N 37°21' E 023°41'1313.1
2016-Aug-20 12:33N 37°08' E 023°37'31812.2
2016-Aug-19 10:26N 35°59' E 017°11'1314.2
2016-Aug-19 09:33N 35°58' E 016°56'5513.7
2016-Aug-19 05:32N 35°53' E 015°48'1413.7
2016-Aug-19 04:33N 35°52' E 015°31'2013.8
2016-Aug-19 03:04N 35°49' E 015°06'2613.5
2016-Aug-19 01:09N 35°48' E 014°34'2 3.0
2016-Aug-19 00:31N 35°49' E 014°32'0 0.0
2016-Aug-18 23:16N 35°49' E 014°32'0 0.0
2016-Aug-18 22:25N 35°49' E 014°32'0 0.0
2016-Aug-18 21:10N 35°49' E 014°32'0 0.0
2016-Aug-18 20:28N 35°49' E 014°32'0 0.0
2016-Aug-18 19:31N 35°49' E 014°32'0 0.0
2016-Aug-18 18:31N 35°49' E 014°32'0 0.0
2016-Aug-18 17:25N 35°49' E 014°32'0 0.0
2016-Aug-18 16:25N 35°49' E 014°32'0 0.0
2016-Aug-18 15:31N 35°49' E 014°32'0 0.0
2016-Aug-18 14:28N 35°49' E 014°32'0 0.0
2016-Aug-18 13:31N 35°49' E 014°32'1 1.2
2016-Aug-18 12:33N 35°49' E 014°34'9 9.2
2016-Aug-18 11:33N 35°46' E 014°23'1515.5
2016-Aug-18 10:33N 35°53' E 014°06'1615.7
2016-Aug-18 09:33N 36°02' E 013°50'1615.7
2016-Aug-18 08:33N 36°10' E 013°33'1515.3
2016-Aug-18 07:34N 36°18' E 013°17'1515.0
2016-Aug-18 06:34N 36°26' E 013°02'1515.0
2016-Aug-18 05:34N 36°35' E 012°46'1615.2
2016-Aug-18 04:32N 36°42' E 012°29'1515.3
2016-Aug-18 03:34N 36°50' E 012°14'4715.5
2016-Aug-18 00:32N 37°15' E 011°24'10414.8
2016-Aug-17 17:33N 37°23' E 009°14'31014.8
2016-Aug-16 20:32N 36°59' E 002°45'1614.9
2016-Aug-16 19:29N 36°56' E 002°26'14314.4
2016-Aug-16 09:33N 36°30' W 000°30'10414.9
2016-Aug-16 02:33N 36°12' W 002°37'1815.5
2016-Aug-16 01:24N 36°10' W 002°59'9815.8
2016-Aug-15 19:12N 36°01' W 005°00'914.5
2016-Aug-15 18:33N 35°60' W 005°12'1514.6
2016-Aug-15 17:33N 35°57' W 005°29'1715.3
2016-Aug-15 16:27N 35°54' W 005°50'  

Dump ship's entire track history